Time;durP1;ratioP1;P1;durP2;ratioP2;P2;SDS_P1;SDS_P2;PMS_P1;PMS_P2;Temp;Humidity;BMP_temperature;BMP_pressure;BME280_temperature;BME280_humidity;BME280_pressure;Samples;Min_cycle;Max_cycle;Signal;HPM_P1;HPM_P2
2022/11/06 02:22:30;;;;;;;;;;;;;;;;;;;;;
2022/11/06 02:25:55;;;;;;;14.25;7.97;;;7.10;99.90;;;;;;5187963;28;20053;-76
2022/11/06 02:28:56;;;;;;;11.43;7.80;;;7.10;99.90;;;;;;5187451;28;20164;-77
2022/11/06 02:31:51;;;;;;;;;;;;;;;;;;;;;
2022/11/06 02:35:17;;;;;;;13.98;8.65;;;7.10;99.90;;;;;;5138257;28;20039;-77
2022/11/06 02:38:15;;;;;;;17.23;7.18;;;7.10;99.90;;;;;;5135886;28;20478;-76
2022/11/06 02:41:11;;;;;;;12.68;7.22;;;7.10;99.90;;;;;;5148627;28;20030;-76
2022/11/06 02:44:08;;;;;;;11.88;7.35;;;7.10;99.90;;;;;;5145540;28;20166;-75
2022/11/06 02:47:13;;;;;;;;;;;;;;;;;;;;;
2022/11/06 02:50:33;;;;;;;11.30;7.93;;;7.10;99.90;;;;;;5087368;29;20044;-75
2022/11/06 02:53:29;;;;;;;16.90;7.82;;;7.10;99.90;;;;;;5079380;29;20507;-76
2022/11/06 02:56:27;;;;;;;15.35;8.30;;;7.10;99.90;;;;;;5055436;29;20051;-76
2022/11/06 02:59:28;;;;;;;12.35;7.82;;;7.20;99.90;;;;;;5070330;29;20036;-76
2022/11/06 03:02:58;;;;;;;11.60;6.72;;;7.10;99.90;;;;;;5077410;29;20044;-76
2022/11/06 03:06:05;;;;;;;11.82;7.63;;;7.10;99.90;;;;;;5057028;29;20281;-75
2022/11/06 03:12:28;;;;;;;13.80;8.52;;;7.00;99.90;;;;;;5094990;29;20035;-75
2022/11/06 03:18:59;;;;;;;12.88;8.63;;;6.90;99.90;;;;;;5086740;29;20040;-74
2022/11/06 03:22:12;;;;;;;14.35;8.57;;;6.90;99.90;;;;;;5085599;29;20040;-75
2022/11/06 03:25:15;;;;;;;15.18;9.10;;;6.90;99.90;;;;;;5073419;29;20329;-75
2022/11/06 03:28:33;;;;;;;;;;;;;;;;;;;;;
2022/11/06 03:31:55;;;;;;;16.35;10.02;;;6.80;99.90;;;;;;5106054;29;20047;-75
2022/11/06 03:35:32;;;;;;;17.65;9.73;;;6.80;99.90;;;;;;5086618;29;20034;-75
2022/11/06 03:38:26;;;;;;;;;;;;;;;;;;;;;
2022/11/06 03:41:59;;;;;;;16.67;10.20;;;6.80;99.90;;;;;;5008868;29;20037;-75
2022/11/06 03:44:56;;;;;;;;;;;;;;;;;;;;;
2022/11/06 03:48:20;;;;;;;18.55;10.18;;;6.70;99.90;;;;;;4969059;29;20267;-75
2022/11/06 03:51:22;;;;;;;18.25;10.57;;;6.70;99.90;;;;;;4934642;30;20040;-75
2022/11/06 03:54:53;;;;;;;15.13;9.10;;;6.70;99.90;;;;;;4932733;30;20036;-75
2022/11/06 03:58:11;;;;;;;17.00;9.30;;;6.70;99.90;;;;;;4958958;29;20045;-75
2022/11/06 04:01:05;;;;;;;15.32;9.57;;;6.70;99.90;;;;;;4970351;29;20039;-75
2022/11/06 04:04:18;;;;;;;21.05;10.85;;;6.70;99.90;;;;;;4947008;29;20051;-75
2022/11/06 04:07:22;;;;;;;15.80;9.90;;;6.70;99.90;;;;;;4943771;29;20065;-75
2022/11/06 04:14:03;;;;;;;14.82;9.02;;;6.70;99.90;;;;;;4930268;30;20060;-75
2022/11/06 04:21:20;;;;;;;15.98;9.73;;;6.80;99.90;;;;;;4953881;29;20038;-75
2022/11/06 04:23:44;;;;;;;;;;;6.70;99.90;;;;;;4953006;29;20690;-75
2022/11/06 04:26:48;;;;;;;14.30;8.68;;;6.80;99.90;;;;;;5030941;29;20198;-75
2022/11/06 04:29:50;;;;;;;16.25;8.95;;;6.70;99.90;;;;;;5014815;29;20021;-75
2022/11/06 04:33:06;;;;;;;;;;;;;;;;;;;;;
2022/11/06 04:36:42;;;;;;;17.58;9.05;;;6.70;99.90;;;;;;5105010;28;20039;-75
2022/11/06 04:39:43;;;;;;;17.20;8.65;;;6.70;99.90;;;;;;5103488;29;20034;-75
2022/11/06 04:42:57;;;;;;;16.38;8.30;;;6.80;99.90;;;;;;5104698;29;20408;-75
2022/11/06 04:49:05;;;;;;;15.82;9.27;;;6.80;99.90;;;;;;5106307;29;20497;-75
2022/11/06 04:52:18;;;;;;;15.20;9.18;;;6.80;99.90;;;;;;5085218;29;20040;-75
2022/11/06 04:55:10;;;;;;;13.30;9.43;;;6.80;99.90;;;;;;5090700;29;20333;-74
2022/11/06 04:58:04;;;;;;;13.90;8.77;;;6.70;99.90;;;;;;5104813;29;20046;-74
2022/11/06 05:00:55;;;;;;;14.27;8.20;;;6.70;99.90;;;;;;5105624;29;20028;-74
2022/11/06 05:04:10;;;;;;;15.15;9.00;;;6.70;99.90;;;;;;5103618;29;20233;-75
2022/11/06 05:07:01;;;;;;;16.80;9.43;;;6.70;99.90;;;;;;5039442;29;20064;-75
2022/11/06 05:09:52;;;;;;;22.55;10.82;;;6.70;99.90;;;;;;5065051;29;20043;-75
2022/11/06 05:12:49;;;;;;;17.55;9.30;;;6.70;99.90;;;;;;5059594;29;20041;-75
2022/11/06 05:15:43;;;;;;;18.48;9.52;;;6.80;99.90;;;;;;5067481;29;20032;-76
2022/11/06 05:18:35;;;;;;;18.25;9.52;;;6.80;99.90;;;;;;5069862;29;20040;-75
2022/11/06 05:28:11;;;;;;;13.77;8.60;;;6.70;99.90;;;;;;5108861;28;20086;-76
2022/11/06 05:31:06;;;;;;;15.82;8.95;;;6.70;99.90;;;;;;5027821;29;20337;-76
2022/11/06 05:33:58;;;;;;;15.10;8.93;;;6.60;99.90;;;;;;5039062;29;20473;-76
2022/11/06 05:36:53;;;;;;;15.00;9.13;;;6.70;99.90;;;;;;5050165;29;20040;-76
2022/11/06 05:40:04;;;;;;;19.50;9.43;;;6.70;99.90;;;;;;5050053;29;20033;-76
2022/11/06 05:46:08;;;;;;;13.95;9.30;;;6.50;99.90;;;;;;5069291;29;20289;-75
2022/11/06 05:49:02;;;;;;;14.45;8.65;;;6.40;99.90;;;;;;5069313;29;20504;-75
2022/11/06 05:51:53;;;;;;;16.10;9.45;;;6.40;99.90;;;;;;5081933;29;20045;-76
2022/11/06 05:54:45;;;;;;;;;;;;;;;;;;;;;
2022/11/06 05:58:17;;;;;;;17.00;9.50;;;6.40;99.90;;;;;;5048862;29;20033;-76
2022/11/06 06:01:11;;;;;;;17.42;9.85;;;6.40;99.90;;;;;;4991123;29;20042;-76
2022/11/06 06:04:22;;;;;;;18.90;10.17;;;6.50;99.90;;;;;;4973752;29;20057;-75
2022/11/06 06:07:14;;;;;;;16.35;9.40;;;6.50;99.90;;;;;;4884522;30;20548;-75
2022/11/06 06:10:10;;;;;;;17.60;10.18;;;6.50;99.90;;;;;;4935840;30;20035;-74
2022/11/06 06:13:01;;;;;;;17.42;10.75;;;6.50;99.90;;;;;;4945943;30;20249;-75
2022/11/06 06:15:59;;;;;;;18.08;9.90;;;6.60;99.90;;;;;;4935621;29;20056;-75
2022/11/06 06:18:51;;;;;;;18.13;10.18;;;6.60;99.90;;;;;;4943584;29;20241;-75
2022/11/06 06:22:02;;;;;;;18.70;10.65;;;6.50;99.90;;;;;;4992219;29;20053;-74
2022/11/06 06:28:08;;;;;;;19.00;10.55;;;6.50;99.90;;;;;;4967589;29;20046;-74
2022/11/06 06:31:03;;;;;;;16.60;9.68;;;6.60;99.90;;;;;;4972188;29;20639;-74
2022/11/06 06:33:56;;;;;;;16.95;10.48;;;6.70;99.90;;;;;;4953664;29;20037;-75
2022/11/06 06:40:07;;;;;;;13.52;8.55;;;6.90;99.90;;;;;;4974475;29;20047;-75
2022/11/06 06:43:01;;;;;;;;;;;;;;;;;;;;;
2022/11/06 06:46:22;;;;;;;15.32;7.82;;;7.10;99.90;;;;;;5015256;29;20034;-75
2022/11/06 06:49:35;;;;;;;12.10;8.05;;;7.10;99.90;;;;;;5010109;29;20353;-75
2022/11/06 06:52:29;;;;;;;12.18;7.30;;;7.20;99.90;;;;;;4972352;29;20379;-75
2022/11/06 06:55:21;;;;;;;9.70;6.22;;;7.40;99.90;;;;;;4984201;29;20053;-75
2022/11/06 06:58:12;;;;;;;12.43;7.20;;;7.50;99.90;;;;;;4987369;29;20052;-75
2022/11/06 07:01:09;;;;;;;13.48;7.10;;;7.60;99.90;;;;;;4980691;29;20228;-75
2022/11/06 07:04:03;;;;;;;13.70;7.32;;;7.70;99.90;;;;;;5003513;29;20054;-75
2022/11/06 07:06:57;;;;;;;12.73;8.70;;;7.80;99.90;;;;;;4994749;29;20058;-76
2022/11/06 07:09:51;;;;;;;10.82;6.43;;;7.90;99.90;;;;;;4990125;29;20279;-75
2022/11/06 07:13:03;;;;;;;10.45;7.38;;;7.90;99.90;;;;;;4991618;29;20037;-75
2022/11/06 07:15:57;;;;;;;8.80;5.90;;;8.00;99.90;;;;;;4993439;29;20087;-75
2022/11/06 07:22:00;;;;;;;10.32;7.00;;;8.10;99.90;;;;;;5011659;29;20237;-75
2022/11/06 07:24:52;;;;;;;11.77;6.15;;;8.20;99.90;;;;;;5042268;29;20037;-75
2022/11/06 07:27:46;;;;;;;8.93;5.53;;;8.20;99.90;;;;;;5029424;29;20049;-75
2022/11/06 07:33:49;;;;;;;10.05;6.30;;;8.50;99.90;;;;;;5059073;29;20025;-75
2022/11/06 07:36:40;;;;;;;10.60;6.05;;;8.50;99.90;;;;;;5048082;29;20041;-75
2022/11/06 07:39:52;;;;;;;7.97;5.25;;;8.60;99.90;;;;;;5045886;29;20040;-75
2022/11/06 07:42:46;;;;;;;10.60;5.35;;;8.70;99.90;;;;;;4998793;29;20400;-75
2022/11/06 07:46:00;;;;;;;8.65;5.78;;;8.80;99.90;;;;;;4989880;29;20050;-75
2022/11/06 07:48:54;;;;;;;9.05;5.32;;;8.90;99.90;;;;;;4970313;29;20081;-76
2022/11/06 07:51:45;;;;;;;10.90;6.13;;;8.90;99.90;;;;;;4974061;29;20042;-75
2022/11/06 07:54:39;;;;;;;9.38;5.97;;;9.00;99.90;;;;;;4997278;29;20030;-74
2022/11/06 07:57:51;;;;;;;8.10;5.47;;;9.10;99.90;;;;;;4997679;29;20050;-75
2022/11/06 08:00:50;;;;;;;7.50;4.90;;;9.20;99.90;;;;;;4998201;29;20038;-75
2022/11/06 08:04:02;;;;;;;9.27;5.30;;;9.20;99.90;;;;;;4994598;29;20064;-76
2022/11/06 08:06:53;;;;;;;10.75;5.53;;;9.30;99.90;;;;;;5009704;29;20075;-75
2022/11/06 08:09:45;;;;;;;8.02;4.70;;;9.50;99.90;;;;;;5019073;29;20060;-76
2022/11/06 08:12:36;;;;;;;8.45;4.32;;;9.60;99.90;;;;;;5035630;29;20037;-76
2022/11/06 08:18:40;;;;;;;7.40;4.95;;;9.60;99.90;;;;;;5023440;29;20034;-76
2022/11/06 08:21:34;;;;;;;8.68;5.03;;;9.60;99.90;;;;;;5037057;29;20031;-75
2022/11/06 08:24:25;;;;;;;6.28;4.30;;;9.60;99.90;;;;;;5033573;29;20048;-75
2022/11/06 08:27:19;;;;;;;12.23;4.88;;;9.70;99.90;;;;;;5038842;29;20037;-75
2022/11/06 08:30:11;;;;;;;7.80;4.63;;;9.80;99.90;;;;;;5046563;29;20052;-76
2022/11/06 08:33:23;;;;;;;7.40;4.97;;;9.90;99.90;;;;;;5055664;29;20031;-77
2022/11/06 08:36:15;;;;;;;5.97;4.00;;;10.00;99.90;;;;;;4987532;29;20030;-76
2022/11/06 08:42:20;;;;;;;7.38;4.20;;;10.30;99.90;;;;;;4989072;29;20031;-76
2022/11/06 08:48:48;;;;;;;6.00;3.47;;;10.10;99.90;;;;;;4951556;29;20053;-76
2022/11/06 08:51:39;;;;;;;6.70;3.97;;;10.30;99.90;;;;;;4943725;29;20027;-75
2022/11/06 08:54:31;;;;;;;7.57;4.25;;;10.40;99.90;;;;;;4969041;29;20046;-76
2022/11/06 08:57:24;;;;;;;8.85;4.47;;;10.40;99.90;;;;;;4969052;29;20041;-76
2022/11/06 09:00:16;;;;;;;5.72;3.83;;;10.50;99.90;;;;;;4963104;29;20076;-74
2022/11/06 09:03:13;;;;;;;5.28;3.97;;;10.70;99.90;;;;;;4976545;29;20501;-75
2022/11/06 09:06:06;;;;;;;6.10;4.00;;;10.90;99.90;;;;;;4961465;29;20058;-75
2022/11/06 09:08:57;;;;;;;6.20;4.10;;;10.90;99.90;;;;;;4977110;29;20058;-74
2022/11/06 09:11:48;;;;;;;9.63;4.32;;;11.00;99.90;;;;;;4988169;29;20042;-74
2022/11/06 09:14:42;;;;;;;5.15;4.22;;;11.00;99.90;;;;;;5023937;29;20741;-76
2022/11/06 09:17:40;;;;;;;8.80;5.15;;;11.10;99.90;;;;;;5034761;29;20033;-75
2022/11/06 09:20:31;;;;;;;14.70;6.75;;;11.00;99.90;;;;;;5052038;29;20032;-76
2022/11/06 09:23:25;;;;;;;10.38;4.45;;;11.10;99.90;;;;;;5065782;29;20032;-76
2022/11/06 09:26:17;;;;;;;9.88;3.97;;;11.10;99.90;;;;;;5120038;28;20086;-74
2022/11/06 09:29:09;;;;;;;7.57;4.68;;;11.10;99.90;;;;;;5168122;28;20033;-75
2022/11/06 09:32:00;;;;;;;6.80;4.13;;;11.30;99.90;;;;;;5179950;28;20041;-76
2022/11/06 09:34:54;;;;;;;5.57;4.25;;;11.50;99.90;;;;;;5170922;28;20025;-76
2022/11/06 09:37:49;;;;;;;6.28;4.05;;;11.30;99.90;;;;;;5178700;28;20037;-74
2022/11/06 09:40:57;;;;;;;7.07;4.47;;;11.40;99.90;;;;;;5186924;28;20355;-77
2022/11/06 09:44:30;;;;;;;8.60;4.43;;;11.80;99.90;;;;;;5204615;28;20036;-75
2022/11/06 09:47:27;;;;;;;3.88;3.05;;;12.10;99.90;;;;;;5144348;28;20158;-77
2022/11/06 09:50:25;;;;;;;7.45;3.55;;;12.10;99.90;;;;;;5164180;28;20026;-76
2022/11/06 09:53:33;;;;;;;4.47;3.70;;;12.00;99.90;;;;;;5206628;28;20039;-74
2022/11/06 09:56:31;;;;;;;8.85;3.50;;;12.40;99.90;;;;;;5199498;28;20334;-74
2022/11/06 09:59:23;;;;;;;9.23;3.00;;;12.90;99.90;;;;;;5193018;28;20325;-76
2022/11/06 10:02:31;;;;;;;5.35;3.15;;;13.60;99.90;;;;;;5193923;28;20055;-76
2022/11/06 10:05:31;;;;;;;7.57;3.53;;;13.80;99.90;;;;;;5194343;28;20061;-77
2022/11/06 10:08:25;;;;;;;4.10;2.88;;;13.90;99.90;;;;;;5189693;28;20619;-74
2022/11/06 10:11:17;;;;;;;4.72;2.88;;;13.90;99.90;;;;;;5182828;28;20029;-77
2022/11/06 10:14:37;;;;;;;6.05;2.55;;;13.60;99.90;;;;;;5189795;28;20026;-77
2022/11/06 10:17:38;;;;;;;2.40;2.08;;;14.30;99.90;;;;;;5188996;28;20056;-76
2022/11/06 10:20:52;;;;;;;3.53;1.85;;;14.50;99.90;;;;;;5188839;28;20021;-77
2022/11/06 10:24:22;;;;;;;4.00;1.73;;;13.20;99.90;;;;;;5189692;28;20056;-76
2022/11/06 10:27:27;;;;;;;7.65;2.42;;;12.90;99.90;;;;;;5206321;28;20131;-76
2022/11/06 10:30:19;;;;;;;3.83;2.00;;;13.30;99.90;;;;;;5217666;28;20039;-76
2022/11/06 10:33:20;;;;;;;3.03;1.80;;;14.30;99.90;;;;;;5193479;28;20044;-75
2022/11/06 10:36:27;;;;;;;2.03;1.48;;;13.30;99.90;;;;;;5201569;28;20338;-76
2022/11/06 10:39:29;;;;;;;4.75;1.70;;;12.20;99.90;;;;;;5194041;28;20029;-76
2022/11/06 10:42:30;;;;;;;3.60;1.70;;;12.30;99.90;;;;;;5210258;28;20452;-76
2022/11/06 10:45:24;;;;;;;3.53;1.83;;;14.00;99.90;;;;;;5194078;28;20044;-76
2022/11/06 10:48:24;;;;;;;1.87;1.70;;;14.90;99.90;;;;;;5214523;28;20060;-76
2022/11/06 10:51:31;;;;;;;4.95;2.08;;;14.10;99.90;;;;;;5223058;28;20029;-76
2022/11/06 10:54:46;;;;;;;3.65;2.25;;;12.90;99.90;;;;;;5229901;28;20029;-75
2022/11/06 10:57:47;;;;;;;5.88;1.88;;;13.10;99.90;;;;;;5167753;28;20038;-76
2022/11/06 11:00:44;;;;;;;5.85;1.85;;;13.80;99.90;;;;;;5174578;28;20040;-76
2022/11/06 11:03:41;;;;;;;3.20;2.22;;;15.00;99.90;;;;;;5196088;28;20036;-75
2022/11/06 11:06:35;;;;;;;4.65;2.00;;;16.20;99.90;;;;;;5186262;28;20523;-76
2022/11/06 11:09:32;;;;;;;3.95;1.85;;;16.00;99.90;;;;;;5188322;28;20048;-76
2022/11/06 11:12:29;;;;;;;5.25;2.00;;;15.90;99.90;;;;;;5179224;28;20299;-76
2022/11/06 11:15:26;;;;;;;3.45;2.63;;;17.20;99.90;;;;;;5194003;28;20025;-76
2022/11/06 11:18:32;;;;;;;4.80;1.90;;;18.10;99.90;;;;;;5194345;28;20052;-76
2022/11/06 11:21:29;;;;;;;4.07;2.95;;;17.10;99.90;;;;;;5196855;28;20033;-76
2022/11/06 11:24:20;;;;;;;2.78;1.80;;;16.80;99.90;;;;;;5194498;28;20029;-76
2022/11/06 11:27:13;;;;;;;3.05;2.15;;;17.20;99.90;;;;;;5206825;28;20067;-76
2022/11/06 11:30:08;;;;;;;4.00;2.33;;;16.20;99.90;;;;;;5208250;28;20087;-76
2022/11/06 11:33:00;;;;;;;;;;;15.30;99.90;;;;;;5187861;28;20033;-76
2022/11/06 11:35:52;;;;;;;2.75;2.08;;;16.20;99.90;;;;;;5198854;28;19913;-76
2022/11/06 11:38:44;;;;;;;4.35;2.13;;;16.60;99.90;;;;;;5208103;28;20029;-76
2022/11/06 11:41:36;;;;;;;1.95;1.60;;;17.80;99.90;;;;;;5209535;28;20222;-76
2022/11/06 11:44:30;;;;;;;5.95;2.35;;;18.40;99.90;;;;;;5187327;28;20037;-76
2022/11/06 11:47:23;;;;;;;5.72;2.33;;;18.20;99.90;;;;;;5185564;28;20039;-76
2022/11/06 11:50:26;;;;;;;4.80;2.22;;;17.70;99.90;;;;;;5204259;28;20985;-76
2022/11/06 11:53:21;;;;;;;4.50;1.88;;;17.00;99.90;;;;;;5194000;28;20033;-76
2022/11/06 11:56:20;;;;;;;2.53;1.85;;;18.00;99.90;;;;;;5211884;28;20033;-77
2022/11/06 11:59:18;;;;;;;3.78;1.70;;;18.70;99.90;;;;;;5208168;28;20060;-76
2022/11/06 12:06:02;;;;;;;3.83;1.95;;;20.30;99.90;;;;;;5127914;28;20089;-77
2022/11/06 12:12:21;;;;;;;4.00;2.00;;;20.00;99.90;;;;;;5103887;29;20127;-75
2022/11/06 12:15:22;;;;;;;;;;;;;;;;;;;;;
2022/11/06 12:18:55;;;;;;;5.55;1.65;;;19.60;99.90;;;;;;5069585;29;20041;-76
2022/11/06 12:21:58;;;;;;;2.40;1.60;;;20.20;99.90;;;;;;5047869;29;20338;-76
2022/11/06 12:25:22;;;;;;;1.98;1.40;;;18.00;99.90;;;;;;5033394;29;20316;-76
2022/11/06 12:28:17;;;;;;;3.70;2.00;;;18.00;99.90;;;;;;4996947;29;20416;-76
2022/11/06 12:31:42;;;;;;;3.70;2.17;;;18.00;99.90;;;;;;4989399;29;20022;-75
2022/11/06 12:35:16;;;;;;;3.45;2.20;;;19.30;99.90;;;;;;5007754;29;20036;-76
2022/11/06 12:38:33;;;;;;;2.47;2.28;;;18.40;99.90;;;;;;4995716;29;20048;-75
2022/11/06 12:41:36;;;;;;;2.10;1.80;;;18.30;99.90;;;;;;4993304;29;20037;-77
2022/11/06 12:44:30;;;;;;;4.15;2.22;;;17.60;99.90;;;;;;5001142;29;20365;-76
2022/11/06 12:48:03;;;;;;;4.20;1.88;;;17.70;99.90;;;;;;5007719;29;20235;-76
2022/11/06 12:51:16;;;;;;;4.93;1.75;;;18.40;99.90;;;;;;5008577;29;20054;-76
2022/11/06 12:54:25;;;;;;;4.95;2.05;;;19.20;99.90;;;;;;5007943;29;20029;-76
2022/11/06 12:57:57;;;;;;;2.38;1.63;;;18.90;99.90;;;;;;5085070;28;20054;-75
2022/11/06 13:01:12;;;;;;;2.15;1.70;;;20.00;99.90;;;;;;5066598;29;20039;-77
2022/11/06 13:04:34;;;;;;;2.60;1.52;;;20.30;99.90;;;;;;5053951;29;20060;-78
2022/11/06 13:07:39;;;;;;;;;;;;;;;;;;;;;
2022/11/06 13:10:53;;;;;;;3.58;1.83;;;20.40;99.90;;;;;;5124511;29;20039;-75
2022/11/06 13:13:55;;;;;;;1.95;1.75;;;20.50;99.90;;;;;;5103279;29;20034;-76
2022/11/06 13:16:53;;;;;;;4.38;1.70;;;21.40;99.90;;;;;;5103346;29;20086;-74
2022/11/06 13:20:09;;;;;;;7.72;1.73;;;21.30;99.90;;;;;;5103557;29;20054;-74
2022/11/06 13:23:26;;;;;;;1.48;1.35;;;20.40;99.90;;;;;;5096585;29;20045;-74
2022/11/06 13:26:33;;;;;;;3.42;1.65;;;19.80;99.90;;;;;;5101032;29;20023;-75
2022/11/06 13:29:25;;;;;;;3.05;1.60;;;20.90;99.90;;;;;;5104080;29;20046;-74
2022/11/06 13:32:20;;;;;;;2.58;1.60;;;22.20;99.90;;;;;;5103139;29;20019;-75
2022/11/06 13:35:35;;;;;;;4.57;1.95;;;22.90;99.90;;;;;;5103878;29;20050;-74
2022/11/06 13:38:33;;;;;;;5.60;1.88;;;21.60;99.90;;;;;;5088720;29;20161;-74
2022/11/06 13:41:28;;;;;;;3.40;1.50;;;19.80;99.90;;;;;;5089417;29;20051;-74
2022/11/06 13:44:21;;;;;;;;;;;;;;;;;;;;;
2022/11/06 13:47:53;;;;;;;4.97;2.03;;;20.00;99.90;;;;;;5115773;28;20426;-76
2022/11/06 13:50:59;;;;;;;2.47;1.70;;;20.00;99.90;;;;;;5152077;28;20319;-74
2022/11/06 13:57:50;;;;;;;4.20;1.90;;;19.50;99.90;;;;;;5146787;28;20037;-74
2022/11/06 14:00:55;;;;;;;2.47;1.50;;;20.20;99.90;;;;;;5147731;28;20220;-77
2022/11/06 14:04:11;;;;;;;3.03;1.60;;;20.60;99.90;;;;;;5120294;28;20039;-76
2022/11/06 14:07:25;;;;;;;2.53;1.08;;;20.40;99.90;;;;;;5111846;28;20389;-74
2022/11/06 14:10:33;;;;;;;2.60;1.80;;;19.60;99.90;;;;;;5088425;29;20349;-74
2022/11/06 14:14:03;;;;;;;2.90;1.40;;;18.20;99.90;;;;;;5075467;29;20032;-75
2022/11/06 14:17:15;;;;;;;1.38;1.27;;;16.20;99.90;;;;;;5001613;29;20251;-75
2022/11/06 14:20:30;;;;;;;7.20;1.98;;;14.70;99.90;;;;;;4999272;29;20035;-76
2022/11/06 14:23:29;;;;;;;4.72;2.20;;;14.00;99.90;;;;;;4974954;29;20047;-75
2022/11/06 14:27:05;;;;;;;4.90;2.50;;;13.40;99.90;;;;;;4991495;29;20048;-75
2022/11/06 14:30:02;;;;;;;3.13;1.98;;;12.70;99.90;;;;;;4992004;29;20094;-75
2022/11/06 14:32:56;;;;;;;4.72;2.30;;;12.40;99.90;;;;;;4985514;29;20031;-75
2022/11/06 14:35:50;;;;;;;3.03;2.13;;;12.10;99.90;;;;;;5013397;29;20056;-76
2022/11/06 14:38:42;;;;;;;4.00;2.13;;;11.90;99.90;;;;;;5030198;29;20067;-75
2022/11/06 14:41:33;;;;;;;7.03;2.20;;;11.60;99.90;;;;;;5029244;29;20271;-76
2022/11/06 14:44:40;;;;;;;2.65;2.15;;;11.50;99.90;;;;;;4992166;29;20041;-76
2022/11/06 14:47:37;;;;;;;3.60;2.10;;;11.30;99.90;;;;;;5019983;29;20050;-76
2022/11/06 14:54:18;;;;;;;4.07;2.22;;;11.00;99.90;;;;;;5022637;29;20039;-75
2022/11/06 14:57:16;;;;;;;5.72;2.42;;;10.90;99.90;;;;;;5040157;29;20039;-75
2022/11/06 15:03:53;;;;;;;3.90;2.13;;;10.70;99.90;;;;;;5079264;29;20040;-76
2022/11/06 15:06:50;;;;;;;;;;;;;;;;;;;;;
2022/11/06 15:10:45;;;;;;;4.53;2.30;;;10.30;99.90;;;;;;5076201;29;20349;-76
2022/11/06 15:13:36;;;;;;;4.20;2.10;;;10.10;99.90;;;;;;5019351;29;20410;-76
2022/11/06 15:20:05;;;;;;;5.70;2.05;;;9.90;99.90;;;;;;4968282;29;20183;-76
2022/11/06 15:23:03;;;;;;;7.25;2.42;;;9.70;99.90;;;;;;4962881;29;20031;-75
2022/11/06 15:26:04;;;;;;;2.83;2.08;;;9.60;99.90;;;;;;4970656;29;20527;-77
2022/11/06 15:29:15;;;;;;;3.58;2.08;;;9.50;99.90;;;;;;4965568;29;20077;-76
2022/11/06 15:32:25;;;;;;;5.40;2.90;;;9.30;99.90;;;;;;4917054;29;20070;-76
2022/11/06 15:35:40;;;;;;;6.90;2.72;;;9.20;99.90;;;;;;4935322;29;20036;-76
2022/11/06 15:38:43;;;;;;;9.20;5.47;;;9.10;99.90;;;;;;4915593;30;20047;-77
2022/11/06 15:44:51;;;;;;;10.55;5.97;;;9.00;99.90;;;;;;4933007;30;20312;-76
2022/11/06 15:47:59;;;;;;;13.13;6.72;;;8.80;99.90;;;;;;4923002;29;20066;-76
2022/11/06 15:50:54;;;;;;;10.98;6.40;;;8.60;99.90;;;;;;4946847;29;20175;-76
2022/11/06 15:54:11;;;;;;;;;;;;;;;;;;;;;
2022/11/06 15:57:26;;;;;;;9.02;6.05;;;8.30;99.90;;;;;;5004263;29;20048;-76
2022/11/06 16:00:40;;;;;;;16.73;8.10;;;8.20;99.90;;;;;;5008803;29;20030;-76
2022/11/06 16:06:56;;;;;;;14.18;7.35;;;8.00;99.90;;;;;;5016541;29;20078;-76
2022/11/06 16:10:12;;;;;;;47.13;23.60;;;7.90;99.90;;;;;;5046189;29;20055;-75
2022/11/06 16:13:04;;;;;;;41.47;21.42;;;7.80;99.90;;;;;;5036585;29;20033;-76
2022/11/06 16:15:59;;;;;;;28.52;15.40;;;7.70;99.90;;;;;;5058556;29;20030;-76
2022/11/06 16:18:52;;;;;;;11.57;6.60;;;7.70;99.90;;;;;;5055793;29;20049;-76
2022/11/06 16:21:57;;;;;;;20.45;9.77;;;7.70;99.90;;;;;;5078224;29;20036;-76
2022/11/06 16:24:55;;;;;;;21.57;10.20;;;7.70;99.90;;;;;;5066961;29;20044;-75
2022/11/06 16:27:49;;;;;;;17.33;9.80;;;7.80;99.90;;;;;;5068806;29;20056;-76
2022/11/06 16:30:41;;;;;;;10.40;6.85;;;7.70;99.90;;;;;;5065754;29;20043;-76
2022/11/06 16:33:34;;;;;;;11.35;7.90;;;7.70;99.90;;;;;;5068999;29;20042;-76
2022/11/06 16:36:28;;;;;;;9.63;7.03;;;7.70;99.90;;;;;;5065941;29;20025;-76
2022/11/06 16:39:36;;;;;;;14.25;7.22;;;7.70;99.90;;;;;;5064711;29;20024;-76
2022/11/06 16:42:34;;;;;;;15.13;9.50;;;7.70;99.90;;;;;;5085401;29;20187;-76
2022/11/06 16:45:52;;;;;;;25.10;17.05;;;7.60;99.90;;;;;;5125473;28;20179;-75
2022/11/06 16:48:45;;;;;;;10.93;6.60;;;7.60;99.90;;;;;;5108785;28;20058;-74
2022/11/06 16:51:40;;;;;;;19.52;8.60;;;7.60;99.90;;;;;;5166955;28;20030;-74
2022/11/06 16:54:34;;;;;;;23.63;9.23;;;7.60;99.90;;;;;;5166754;28;20056;-75
2022/11/06 16:57:29;;;;;;;28.43;9.87;;;7.50;99.90;;;;;;5165860;28;20037;-74
2022/11/06 17:00:28;;;;;;;;;;;7.30;99.90;;;;;;5165312;28;20324;-76
2022/11/06 17:03:25;;;;;;;17.52;8.57;;;7.20;99.90;;;;;;5144431;28;19918;-75
2022/11/06 17:06:20;;;;;;;18.23;6.95;;;7.10;99.90;;;;;;5157185;28;20053;-75
2022/11/06 17:09:34;;;;;;;27.63;7.78;;;7.10;99.90;;;;;;5164157;28;20040;-75
2022/11/06 17:12:25;;;;;;;16.27;6.63;;;7.10;99.90;;;;;;5167929;28;20460;-76
2022/11/06 17:15:38;;;;;;;13.43;6.88;;;7.10;99.90;;;;;;5140042;28;20040;-75
2022/11/06 17:18:35;;;;;;;12.93;7.80;;;7.00;99.90;;;;;;5080721;29;20165;-74
2022/11/06 17:21:26;;;;;;;11.52;5.63;;;7.00;99.90;;;;;;5090119;29;20076;-75
2022/11/06 17:24:25;;;;;;;13.70;5.45;;;6.90;99.90;;;;;;5089429;29;20038;-74
2022/11/06 17:27:37;;;;;;;7.28;5.65;;;7.00;99.90;;;;;;5126833;28;20039;-74
2022/11/06 17:30:31;;;;;;;8.63;5.03;;;7.00;99.90;;;;;;5088305;29;20540;-75
2022/11/06 17:33:45;;;;;;;8.50;5.15;;;7.00;99.90;;;;;;5099407;29;20039;-75
2022/11/06 17:36:42;;;;;;;15.20;6.85;;;6.90;99.90;;;;;;5069457;29;20042;-74
2022/11/06 17:39:53;;;;;;;6.80;4.75;;;6.90;99.90;;;;;;5056393;29;20049;-75
2022/11/06 17:42:45;;;;;;;9.82;6.88;;;6.90;99.90;;;;;;5010671;29;20410;-74
2022/11/06 17:45:41;;;;;;;8.88;6.50;;;6.80;99.90;;;;;;5012331;29;20040;-75
2022/11/06 17:48:33;;;;;;;;;;;;;;;;;;;;;
2022/11/06 17:51:49;;;;;;;20.88;9.70;;;6.60;99.90;;;;;;4955226;29;20040;-73
2022/11/06 17:54:40;;;;;;;8.45;5.38;;;6.50;99.90;;;;;;4958702;29;20553;-75
2022/11/06 17:57:52;;;;;;;11.43;5.22;;;6.50;99.90;;;;;;4973668;29;20042;-74
2022/11/06 18:00:43;;;;;;;;;;;;;;;;;;;;;
2022/11/06 18:04:16;;;;;;;11.43;5.72;;;6.90;99.90;;;;;;4931601;30;20050;-76
2022/11/06 18:07:08;;;;;;;9.25;4.60;;;6.90;99.90;;;;;;4920128;30;20053;-74
2022/11/06 18:13:35;;;;;;;8.85;5.72;;;6.60;99.90;;;;;;4965412;29;20047;-74
2022/11/06 18:16:31;;;;;;;7.15;4.78;;;6.50;99.90;;;;;;4954580;29;20051;-74
2022/11/06 18:19:23;;;;;;;9.73;4.53;;;6.40;99.90;;;;;;4962995;29;20035;-74
2022/11/06 18:22:15;;;;;;;7.13;4.15;;;6.30;99.90;;;;;;4972668;29;20042;-73
2022/11/06 18:25:09;;;;;;;8.70;4.72;;;6.30;99.90;;;;;;4974370;29;20057;-73
2022/11/06 18:28:00;;;;;;;14.30;6.25;;;6.30;99.90;;;;;;4972556;29;20050;-74
2022/11/06 18:30:56;;;;;;;16.48;6.13;;;6.30;99.90;;;;;;4973064;29;20550;-73
2022/11/06 18:33:47;;;;;;;12.02;6.78;;;6.30;99.90;;;;;;4974383;29;20050;-73
2022/11/06 18:36:41;;;;;;;14.85;7.13;;;6.30;99.90;;;;;;4978268;29;20038;-74
2022/11/06 18:39:36;;;;;;;16.70;7.53;;;6.30;99.90;;;;;;5010796;29;20040;-74
2022/11/06 18:42:28;;;;;;;;;;;;;;;;;;;;;
2022/11/06 18:45:39;;;;;;;10.98;5.43;;;6.30;99.90;;;;;;5007983;29;20046;-74
2022/11/06 18:48:32;;;;;;;15.27;6.30;;;6.20;99.90;;;;;;5011570;29;20343;-73
2022/11/06 18:51:44;;;;;;;12.88;5.70;;;6.20;99.90;;;;;;5102455;29;20167;-74
2022/11/06 18:54:38;;;;;;;7.93;5.32;;;6.20;99.90;;;;;;5049832;29;20189;-74
2022/11/06 18:57:34;;;;;;;8.60;6.20;;;6.20;99.90;;;;;;5050085;29;20063;-73
2022/11/06 19:00:28;;;;;;;10.50;5.10;;;6.20;99.90;;;;;;5062564;29;20029;-75
2022/11/06 19:03:19;;;;;;;;;;;;;;;;;;;;;
2022/11/06 19:06:31;;;;;;;9.60;6.10;;;6.10;99.90;;;;;;5053482;29;20063;-73
2022/11/06 19:09:25;;;;;;;11.02;6.28;;;6.00;99.90;;;;;;5081935;29;20044;-74
2022/11/06 19:12:16;;;;;;;12.05;6.38;;;5.80;99.90;;;;;;5054608;29;20074;-73
2022/11/06 19:15:08;;;;;;;22.52;11.82;;;5.70;99.90;;;;;;5041987;29;20056;-73
2022/11/06 19:18:00;;;;;;;12.02;7.20;;;5.70;99.90;;;;;;5042167;29;20049;-73
2022/11/06 19:21:12;;;;;;;14.27;7.38;;;5.70;99.90;;;;;;5041821;29;20559;-73
2022/11/06 19:24:08;;;;;;;12.38;7.45;;;5.50;99.90;;;;;;5031208;29;20252;-73
2022/11/06 19:27:00;;;;;;;13.82;7.40;;;5.60;99.90;;;;;;5030214;29;20096;-73
2022/11/06 19:29:53;;;;;;;11.13;6.07;;;5.60;99.90;;;;;;5057339;29;20040;-72
2022/11/06 19:32:44;;;;;;;8.70;5.70;;;5.60;99.90;;;;;;5110469;29;20039;-73
2022/11/06 19:35:38;;;;;;;7.50;5.25;;;5.60;99.90;;;;;;5084870;29;20257;-74
2022/11/06 19:38:30;;;;;;;;;;;;;;;;;;;;;
2022/11/06 19:41:42;;;;;;;11.45;6.13;;;5.60;99.90;;;;;;5079167;29;20036;-74
2022/11/06 19:44:36;;;;;;;10.30;6.10;;;5.50;99.90;;;;;;5084957;29;20035;-74
2022/11/06 19:47:31;;;;;;;17.95;5.70;;;5.40;99.90;;;;;;5087959;29;20048;-74
2022/11/06 19:50:23;;;;;;;12.05;7.05;;;5.40;99.90;;;;;;5081576;29;20026;-72
2022/11/06 19:53:24;;;;;;;12.60;6.47;;;5.40;99.90;;;;;;5081365;29;20043;-74
2022/11/06 19:56:19;;;;;;;9.45;6.47;;;5.40;99.90;;;;;;5080636;29;20468;-75